sensor_id;sensor_type;location;lat;lon;timestamp;pressure;altitude;pressure_sealevel;temperature;humidity
54910;BME280;63189;51.240;9.964;2023-03-25T00:01:00;96698.69;;;7.55;100.00
54910;BME280;63189;51.240;9.964;2023-03-25T00:03:27;96718.34;;;7.61;100.00
54910;BME280;63189;51.240;9.964;2023-03-25T00:05:54;96711.47;;;7.60;100.00
54910;BME280;63189;51.240;9.964;2023-03-25T00:08:21;96687.69;;;7.48;100.00
54910;BME280;63189;51.240;9.964;2023-03-25T00:10:53;96692.53;;;7.58;100.00
54910;BME280;63189;51.240;9.964;2023-03-25T00:13:19;96674.19;;;7.40;100.00
54910;BME280;63189;51.240;9.964;2023-03-25T00:15:46;96692.94;;;7.47;100.00
54910;BME280;63189;51.240;9.964;2023-03-25T00:18:13;96692.81;;;7.50;100.00
54910;BME280;63189;51.240;9.964;2023-03-25T00:20:39;96691.09;;;7.50;100.00
54910;BME280;63189;51.240;9.964;2023-03-25T00:23:06;96678.50;;;7.40;100.00
54910;BME280;63189;51.240;9.964;2023-03-25T00:25:32;96689.38;;;7.49;100.00
54910;BME280;63189;51.240;9.964;2023-03-25T00:27:58;96686.84;;;7.48;100.00
54910;BME280;63189;51.240;9.964;2023-03-25T00:30:24;96688.44;;;7.52;100.00
54910;BME280;63189;51.240;9.964;2023-03-25T00:32:49;96685.16;;;7.47;100.00
54910;BME280;63189;51.240;9.964;2023-03-25T00:35:20;96696.16;;;7.53;100.00
54910;BME280;63189;51.240;9.964;2023-03-25T00:37:51;96689.28;;;7.52;100.00
54910;BME280;63189;51.240;9.964;2023-03-25T00:40:22;96692.16;;;7.45;100.00
54910;BME280;63189;51.240;9.964;2023-03-25T00:42:48;96689.00;;;7.37;100.00
54910;BME280;63189;51.240;9.964;2023-03-25T00:45:15;96701.91;;;7.38;100.00
54910;BME280;63189;51.240;9.964;2023-03-25T00:47:41;96667.50;;;7.11;100.00
54910;BME280;63189;51.240;9.964;2023-03-25T00:50:07;96702.03;;;7.35;100.00
54910;BME280;63189;51.240;9.964;2023-03-25T00:52:32;96708.25;;;7.31;100.00
54910;BME280;63189;51.240;9.964;2023-03-25T00:54:57;96695.22;;;7.33;100.00
54910;BME280;63189;51.240;9.964;2023-03-25T00:57:23;96684.91;;;7.31;100.00
54910;BME280;63189;51.240;9.964;2023-03-25T00:59:48;96679.59;;;7.34;100.00
54910;BME280;63189;51.240;9.964;2023-03-25T01:02:13;96678.63;;;7.37;100.00
54910;BME280;63189;51.240;9.964;2023-03-25T01:04:40;96635.50;;;7.12;100.00
54910;BME280;63189;51.240;9.964;2023-03-25T01:07:06;96691.72;;;7.34;100.00
54910;BME280;63189;51.240;9.964;2023-03-25T01:09:32;96679.59;;;7.34;100.00
54910;BME280;63189;51.240;9.964;2023-03-25T01:11:58;96678.88;;;7.31;100.00
54910;BME280;63189;51.240;9.964;2023-03-25T01:14:23;96675.38;;;7.32;100.00
54910;BME280;63189;51.240;9.964;2023-03-25T01:16:51;96681.56;;;7.28;100.00
54910;BME280;63189;51.240;9.964;2023-03-25T01:19:16;96656.81;;;7.20;100.00
54910;BME280;63189;51.240;9.964;2023-03-25T01:21:42;96672.84;;;7.30;100.00
54910;BME280;63189;51.240;9.964;2023-03-25T01:24:11;96643.28;;;7.12;100.00
54910;BME280;63189;51.240;9.964;2023-03-25T01:26:37;96638.31;;;7.06;100.00
54910;BME280;63189;51.240;9.964;2023-03-25T01:29:02;96672.22;;;7.23;100.00
54910;BME280;63189;51.240;9.964;2023-03-25T01:31:28;96662.06;;;7.17;100.00
54910;BME280;63189;51.240;9.964;2023-03-25T01:33:57;96674.03;;;7.21;100.00
54910;BME280;63189;51.240;9.964;2023-03-25T01:36:23;96660.38;;;7.16;100.00
54910;BME280;63189;51.240;9.964;2023-03-25T01:38:50;96670.66;;;7.19;100.00
54910;BME280;63189;51.240;9.964;2023-03-25T01:41:15;96661.16;;;7.20;100.00
54910;BME280;63189;51.240;9.964;2023-03-25T01:43:41;96663.88;;;7.15;100.00
54910;BME280;63189;51.240;9.964;2023-03-25T01:46:11;96659.63;;;7.14;100.00
54910;BME280;63189;51.240;9.964;2023-03-25T01:48:43;96660.56;;;7.12;100.00
54910;BME280;63189;51.240;9.964;2023-03-25T01:51:28;96655.53;;;7.09;100.00
54910;BME280;63189;51.240;9.964;2023-03-25T01:53:55;96667.84;;;7.02;100.00
54910;BME280;63189;51.240;9.964;2023-03-25T01:56:30;96665.91;;;7.07;100.00
54910;BME280;63189;51.240;9.964;2023-03-25T01:59:00;96662.31;;;7.11;100.00
54910;BME280;63189;51.240;9.964;2023-03-25T02:01:27;96648.03;;;7.01;100.00
54910;BME280;63189;51.240;9.964;2023-03-25T02:03:53;96661.81;;;7.02;100.00
54910;BME280;63189;51.240;9.964;2023-03-25T02:06:33;96667.97;;;6.99;100.00
54910;BME280;63189;51.240;9.964;2023-03-25T02:09:02;96649.66;;;7.04;100.00
54910;BME280;63189;51.240;9.964;2023-03-25T02:11:32;96661.81;;;7.02;100.00
54910;BME280;63189;51.240;9.964;2023-03-25T02:14:00;96662.41;;;7.08;100.00
54910;BME280;63189;51.240;9.964;2023-03-25T02:38:38;96649.00;;;6.97;100.00
54910;BME280;63189;51.240;9.964;2023-03-25T02:44:22;96654.31;;;6.94;100.00
54910;BME280;63189;51.240;9.964;2023-03-25T02:46:54;96650.94;;;6.92;100.00
54910;BME280;63189;51.240;9.964;2023-03-25T02:49:24;96644.19;;;6.88;100.00
54910;BME280;63189;51.240;9.964;2023-03-25T02:52:07;96640.91;;;6.83;100.00
54910;BME280;63189;51.240;9.964;2023-03-25T02:54:35;96651.50;;;6.77;100.00
54910;BME280;63189;51.240;9.964;2023-03-25T02:57:04;96661.31;;;6.69;100.00
54910;BME280;63189;51.240;9.964;2023-03-25T02:59:32;96656.00;;;6.72;100.00
54910;BME280;63189;51.240;9.964;2023-03-25T03:02:04;96660.72;;;6.60;100.00
54910;BME280;63189;51.240;9.964;2023-03-25T03:04:32;96676.91;;;6.67;100.00
54910;BME280;63189;51.240;9.964;2023-03-25T03:06:57;96677.63;;;6.71;100.00
54910;BME280;63189;51.240;9.964;2023-03-25T03:09:44;96679.25;;;6.73;100.00
54910;BME280;63189;51.240;9.964;2023-03-25T03:12:20;96677.69;;;6.69;100.00
54910;BME280;63189;51.240;9.964;2023-03-25T03:15:01;96661.13;;;6.73;100.00
54910;BME280;63189;51.240;9.964;2023-03-25T03:17:41;96665.34;;;6.76;100.00
54910;BME280;63189;51.240;9.964;2023-03-25T03:20:23;96661.06;;;6.75;100.00
54910;BME280;63189;51.240;9.964;2023-03-25T03:23:05;96638.31;;;6.59;100.00
54910;BME280;63189;51.240;9.964;2023-03-25T03:25:43;96668.91;;;6.73;100.00
54910;BME280;63189;51.240;9.964;2023-03-25T03:28:24;96647.91;;;6.57;100.00
54910;BME280;63189;51.240;9.964;2023-03-25T03:31:31;96651.16;;;6.62;100.00
54910;BME280;63189;51.240;9.964;2023-03-25T03:34:03;96650.25;;;6.63;100.00
54910;BME280;63189;51.240;9.964;2023-03-25T03:36:37;96662.22;;;6.68;100.00
54910;BME280;63189;51.240;9.964;2023-03-25T03:39:28;96666.56;;;6.65;100.00
54910;BME280;63189;51.240;9.964;2023-03-25T03:42:01;96623.56;;;6.38;100.00
54910;BME280;63189;51.240;9.964;2023-03-25T03:44:32;96660.94;;;6.54;100.00
54910;BME280;63189;51.240;9.964;2023-03-25T03:47:03;96639.88;;;6.40;100.00
54910;BME280;63189;51.240;9.964;2023-03-25T03:49:36;96662.97;;;6.46;100.00
54910;BME280;63189;51.240;9.964;2023-03-25T03:52:12;96651.53;;;6.52;100.00
54910;BME280;63189;51.240;9.964;2023-03-25T03:54:46;96657.69;;;6.49;100.00
54910;BME280;63189;51.240;9.964;2023-03-25T03:57:27;96665.56;;;6.46;100.00
54910;BME280;63189;51.240;9.964;2023-03-25T04:00:48;96669.00;;;6.47;100.00
54910;BME280;63189;51.240;9.964;2023-03-25T04:03:23;96657.03;;;6.43;100.00
54910;BME280;63189;51.240;9.964;2023-03-25T04:06:09;96680.06;;;6.50;100.00
54910;BME280;63189;51.240;9.964;2023-03-25T04:08:42;96668.28;;;6.42;100.00
54910;BME280;63189;51.240;9.964;2023-03-25T04:11:20;96662.38;;;6.38;100.00
54910;BME280;63189;51.240;9.964;2023-03-25T04:13:48;96659.03;;;6.34;100.00
54910;BME280;63189;51.240;9.964;2023-03-25T04:16:16;96637.00;;;6.23;100.00
54910;BME280;63189;51.240;9.964;2023-03-25T04:18:42;96660.56;;;6.40;100.00
54910;BME280;63189;51.240;9.964;2023-03-25T04:21:08;96666.44;;;6.45;100.00
54910;BME280;63189;51.240;9.964;2023-03-25T04:23:34;96657.28;;;6.35;100.00
54910;BME280;63189;51.240;9.964;2023-03-25T04:26:02;96673.63;;;6.37;100.00
54910;BME280;63189;51.240;9.964;2023-03-25T04:28:28;96675.84;;;6.48;100.00
54910;BME280;63189;51.240;9.964;2023-03-25T04:30:53;96658.72;;;6.44;100.00
54910;BME280;63189;51.240;9.964;2023-03-25T04:33:25;96667.25;;;6.47;100.00
54910;BME280;63189;51.240;9.964;2023-03-25T04:35:51;96679.34;;;6.47;100.00
54910;BME280;63189;51.240;9.964;2023-03-25T04:38:17;96668.47;;;6.37;100.00
54910;BME280;63189;51.240;9.964;2023-03-25T04:40:46;96676.91;;;6.42;100.00
54910;BME280;63189;51.240;9.964;2023-03-25T04:43:15;96687.06;;;6.48;100.00
54910;BME280;63189;51.240;9.964;2023-03-25T04:45:42;96674.31;;;6.42;100.00
54910;BME280;63189;51.240;9.964;2023-03-25T04:48:23;96681.81;;;6.50;100.00
54910;BME280;63189;51.240;9.964;2023-03-25T04:50:54;96671.94;;;6.36;100.00
54910;BME280;63189;51.240;9.964;2023-03-25T04:53:20;96668.53;;;6.34;100.00
54910;BME280;63189;51.240;9.964;2023-03-25T04:55:45;96677.81;;;6.41;100.00
54910;BME280;63189;51.240;9.964;2023-03-25T04:58:14;96679.28;;;6.48;100.00
54910;BME280;63189;51.240;9.964;2023-03-25T05:00:41;96643.78;;;6.27;100.00
54910;BME280;63189;51.240;9.964;2023-03-25T05:03:08;96659.16;;;6.31;100.00
54910;BME280;63189;51.240;9.964;2023-03-25T05:05:34;96674.16;;;6.47;100.00
54910;BME280;63189;51.240;9.964;2023-03-25T05:07:59;96657.63;;;6.26;100.00
54910;BME280;63189;51.240;9.964;2023-03-25T05:10:26;96674.69;;;6.31;100.00
54910;BME280;63189;51.240;9.964;2023-03-25T05:13:01;96649.09;;;6.22;100.00
54910;BME280;63189;51.240;9.964;2023-03-25T05:15:27;96629.97;;;6.01;100.00
54910;BME280;63189;51.240;9.964;2023-03-25T05:17:55;96628.47;;;5.96;100.00
54910;BME280;63189;51.240;9.964;2023-03-25T05:20:20;96672.56;;;6.18;100.00
54910;BME280;63189;51.240;9.964;2023-03-25T05:22:46;96634.16;;;6.05;100.00
54910;BME280;63189;51.240;9.964;2023-03-25T05:25:12;96656.28;;;6.14;100.00
54910;BME280;63189;51.240;9.964;2023-03-25T05:27:38;96654.44;;;6.18;100.00
54910;BME280;63189;51.240;9.964;2023-03-25T05:30:05;96664.56;;;6.24;100.00
54910;BME280;63189;51.240;9.964;2023-03-25T05:32:30;96662.00;;;6.24;100.00
54910;BME280;63189;51.240;9.964;2023-03-25T05:35:00;96650.19;;;6.17;100.00
54910;BME280;63189;51.240;9.964;2023-03-25T05:37:25;96670.22;;;6.35;100.00
54910;BME280;63189;51.240;9.964;2023-03-25T05:39:51;96646.88;;;6.12;100.00
54910;BME280;63189;51.240;9.964;2023-03-25T05:42:17;96670.53;;;6.27;100.00
54910;BME280;63189;51.240;9.964;2023-03-25T05:44:42;96639.44;;;6.02;100.00
54910;BME280;63189;51.240;9.964;2023-03-25T05:47:11;96661.50;;;6.13;100.00
54910;BME280;63189;51.240;9.964;2023-03-25T05:49:37;96675.94;;;6.20;100.00
54910;BME280;63189;51.240;9.964;2023-03-25T05:52:03;96694.72;;;6.25;100.00
54910;BME280;63189;51.240;9.964;2023-03-25T05:54:28;96683.72;;;6.20;100.00
54910;BME280;63189;51.240;9.964;2023-03-25T05:56:54;96707.00;;;6.20;100.00
54910;BME280;63189;51.240;9.964;2023-03-25T05:59:20;96705.09;;;6.25;100.00
54910;BME280;63189;51.240;9.964;2023-03-25T06:01:45;96718.13;;;6.22;100.00
54910;BME280;63189;51.240;9.964;2023-03-25T06:04:11;96723.66;;;6.11;100.00
54910;BME280;63189;51.240;9.964;2023-03-25T06:06:38;96699.81;;;5.75;100.00
54910;BME280;63189;51.240;9.964;2023-03-25T06:09:05;96699.97;;;5.69;100.00
54910;BME280;63189;51.240;9.964;2023-03-25T06:11:31;96700.41;;;5.55;100.00
54910;BME280;63189;51.240;9.964;2023-03-25T06:14:03;96665.69;;;5.36;100.00
54910;BME280;63189;51.240;9.964;2023-03-25T06:16:29;96653.66;;;5.35;100.00
54910;BME280;63189;51.240;9.964;2023-03-25T06:18:56;96704.47;;;5.64;100.00
54910;BME280;63189;51.240;9.964;2023-03-25T06:21:25;96724.25;;;5.65;100.00
54910;BME280;63189;51.240;9.964;2023-03-25T06:23:53;96717.72;;;5.53;100.00
54910;BME280;63189;51.240;9.964;2023-03-25T06:26:21;96703.06;;;5.52;100.00
54910;BME280;63189;51.240;9.964;2023-03-25T06:28:47;96708.25;;;5.52;100.00
54910;BME280;63189;51.240;9.964;2023-03-25T06:31:18;96720.25;;;5.55;100.00
54910;BME280;63189;51.240;9.964;2023-03-25T06:33:45;96699.81;;;5.47;100.00
54910;BME280;63189;51.240;9.964;2023-03-25T06:36:13;96699.63;;;5.53;100.00
54910;BME280;63189;51.240;9.964;2023-03-25T06:38:43;96736.91;;;5.74;100.00
54910;BME280;63189;51.240;9.964;2023-03-25T06:41:08;96730.13;;;5.70;100.00
54910;BME280;63189;51.240;9.964;2023-03-25T06:43:33;96716.56;;;5.63;100.00
54910;BME280;63189;51.240;9.964;2023-03-25T06:45:59;96739.38;;;5.77;100.00
54910;BME280;63189;51.240;9.964;2023-03-25T06:48:24;96738.34;;;5.83;100.00
54910;BME280;63189;51.240;9.964;2023-03-25T06:50:50;96732.59;;;5.73;100.00
54910;BME280;63189;51.240;9.964;2023-03-25T06:53:16;96739.38;;;5.77;100.00
54910;BME280;63189;51.240;9.964;2023-03-25T06:55:41;96734.88;;;5.56;100.00
54910;BME280;63189;51.240;9.964;2023-03-25T06:58:10;96743.41;;;5.58;100.00
54910;BME280;63189;51.240;9.964;2023-03-25T07:00:36;96734.25;;;5.47;100.00
54910;BME280;63189;51.240;9.964;2023-03-25T07:03:02;96754.66;;;5.57;100.00
54910;BME280;63189;51.240;9.964;2023-03-25T07:05:27;96737.00;;;5.41;100.00
54910;BME280;63189;51.240;9.964;2023-03-25T07:07:53;96711.63;;;5.26;100.00
54910;BME280;63189;51.240;9.964;2023-03-25T07:10:18;96738.53;;;5.48;100.00
54910;BME280;63189;51.240;9.964;2023-03-25T07:12:44;96721.16;;;5.52;100.00
54910;BME280;63189;51.240;9.964;2023-03-25T07:15:09;96704.97;;;5.47;100.00
54910;BME280;63189;51.240;9.964;2023-03-25T07:17:35;96700.69;;;5.46;100.00
54910;BME280;63189;51.240;9.964;2023-03-25T07:20:01;96692.47;;;5.33;100.00
54910;BME280;63189;51.240;9.964;2023-03-25T07:22:27;96708.78;;;5.63;100.00
54910;BME280;63189;51.240;9.964;2023-03-25T07:24:52;96700.53;;;5.78;100.00
54910;BME280;63189;51.240;9.964;2023-03-25T07:27:17;96737.31;;;6.16;100.00
54910;BME280;63189;51.240;9.964;2023-03-25T07:29:43;96720.97;;;6.41;100.00
54910;BME280;63189;51.240;9.964;2023-03-25T07:32:08;96740.72;;;6.93;100.00
54910;BME280;63189;51.240;9.964;2023-03-25T07:34:34;96708.91;;;6.64;100.00
54910;BME280;63189;51.240;9.964;2023-03-25T07:37:00;96688.56;;;6.29;100.00
54910;BME280;63189;51.240;9.964;2023-03-25T07:39:25;96728.44;;;6.50;100.00
54910;BME280;63189;51.240;9.964;2023-03-25T07:41:51;96733.19;;;6.62;100.00
54910;BME280;63189;51.240;9.964;2023-03-25T07:44:17;96740.41;;;6.52;100.00
54910;BME280;63189;51.240;9.964;2023-03-25T07:46:45;96701.22;;;6.38;100.00
54910;BME280;63189;51.240;9.964;2023-03-25T07:49:10;96704.47;;;6.43;100.00
54910;BME280;63189;51.240;9.964;2023-03-25T07:51:36;96733.34;;;6.57;100.00
54910;BME280;63189;51.240;9.964;2023-03-25T07:54:01;96728.84;;;6.62;100.00
54910;BME280;63189;51.240;9.964;2023-03-25T07:56:26;96721.28;;;6.56;100.00
54910;BME280;63189;51.240;9.964;2023-03-25T07:58:51;96731.31;;;6.65;100.00
54910;BME280;63189;51.240;9.964;2023-03-25T08:01:17;96728.28;;;6.79;100.00
54910;BME280;63189;51.240;9.964;2023-03-25T08:03:42;96738.47;;;6.84;100.00
54910;BME280;63189;51.240;9.964;2023-03-25T08:06:08;96741.16;;;6.81;100.00
54910;BME280;63189;51.240;9.964;2023-03-25T08:08:33;96746.22;;;6.84;100.00
54910;BME280;63189;51.240;9.964;2023-03-25T08:10:59;96742.97;;;6.79;100.00
54910;BME280;63189;51.240;9.964;2023-03-25T08:13:26;96726.53;;;6.80;100.00
54910;BME280;63189;51.240;9.964;2023-03-25T08:15:52;96754.25;;;6.76;100.00
54910;BME280;63189;51.240;9.964;2023-03-25T08:18:18;96745.66;;;6.76;100.00
54910;BME280;63189;51.240;9.964;2023-03-25T08:20:43;96728.41;;;6.75;100.00
54910;BME280;63189;51.240;9.964;2023-03-25T08:23:09;96725.56;;;6.82;100.00
54910;BME280;63189;51.240;9.964;2023-03-25T08:25:44;96725.81;;;7.23;100.00
54910;BME280;63189;51.240;9.964;2023-03-25T08:28:14;96733.81;;;7.64;97.50
54910;BME280;63189;51.240;9.964;2023-03-25T08:30:42;96726.66;;;8.13;97.50
54910;BME280;63189;51.240;9.964;2023-03-25T08:33:08;96750.34;;;8.05;95.93
54910;BME280;63189;51.240;9.964;2023-03-25T08:35:35;96742.94;;;7.96;93.64
54910;BME280;63189;51.240;9.964;2023-03-25T08:38:01;96724.53;;;8.22;95.79
54910;BME280;63189;51.240;9.964;2023-03-25T08:40:30;96740.31;;;8.39;92.18
54910;BME280;63189;51.240;9.964;2023-03-25T08:42:56;96734.56;;;8.31;92.70
54910;BME280;63189;51.240;9.964;2023-03-25T08:45:22;96745.16;;;8.69;92.84
54910;BME280;63189;51.240;9.964;2023-03-25T08:47:47;96736.28;;;8.53;91.25
54910;BME280;63189;51.240;9.964;2023-03-25T08:50:12;96726.72;;;8.55;92.83
54910;BME280;63189;51.240;9.964;2023-03-25T08:52:38;96734.63;;;8.30;91.29
54910;BME280;63189;51.240;9.964;2023-03-25T08:55:04;96724.66;;;8.19;92.46
54910;BME280;63189;51.240;9.964;2023-03-25T08:57:33;96726.16;;;8.04;92.74
54910;BME280;63189;51.240;9.964;2023-03-25T08:59:59;96746.31;;;7.98;93.36
54910;BME280;63189;51.240;9.964;2023-03-25T09:02:24;96731.88;;;7.91;92.63
54910;BME280;63189;51.240;9.964;2023-03-25T09:04:49;96725.06;;;7.88;93.99
54910;BME280;63189;51.240;9.964;2023-03-25T09:07:15;96732.00;;;7.88;91.64
54910;BME280;63189;51.240;9.964;2023-03-25T09:09:44;96716.28;;;7.91;93.85
54910;BME280;63189;51.240;9.964;2023-03-25T09:12:09;96725.91;;;7.89;92.12
54910;BME280;63189;51.240;9.964;2023-03-25T09:14:35;96727.22;;;7.99;91.74
54910;BME280;63189;51.240;9.964;2023-03-25T09:17:00;96720.13;;;8.04;92.52
54910;BME280;63189;51.240;9.964;2023-03-25T09:19:26;96732.25;;;8.03;90.67
54910;BME280;63189;51.240;9.964;2023-03-25T09:21:51;96724.75;;;7.96;92.09
54910;BME280;63189;51.240;9.964;2023-03-25T09:24:17;96715.66;;;7.86;91.10
54910;BME280;63189;51.240;9.964;2023-03-25T09:26:42;96726.69;;;7.91;91.89
54910;BME280;63189;51.240;9.964;2023-03-25T09:29:08;96711.06;;;7.92;90.58
54910;BME280;63189;51.240;9.964;2023-03-25T09:31:33;96723.38;;;7.87;90.18
54910;BME280;63189;51.240;9.964;2023-03-25T09:34:00;96717.13;;;7.91;89.66
54910;BME280;63189;51.240;9.964;2023-03-25T09:36:25;96721.91;;;8.02;90.56
54910;BME280;63189;51.240;9.964;2023-03-25T09:38:51;96737.25;;;8.08;89.18
54910;BME280;63189;51.240;9.964;2023-03-25T09:41:25;96737.78;;;8.16;91.15
54910;BME280;63189;51.240;9.964;2023-03-25T09:44:04;96717.31;;;8.08;91.06
54910;BME280;63189;51.240;9.964;2023-03-25T09:46:36;96713.16;;;8.04;89.42
54910;BME280;63189;51.240;9.964;2023-03-25T09:49:02;96741.16;;;7.96;89.06
54910;BME280;63189;51.240;9.964;2023-03-25T09:51:31;96745.22;;;7.81;90.19
54910;BME280;63189;51.240;9.964;2023-03-25T09:54:02;96747.63;;;7.86;93.91
54910;BME280;63189;51.240;9.964;2023-03-25T09:56:30;96730.44;;;7.62;93.97
54910;BME280;63189;51.240;9.964;2023-03-25T09:59:04;96738.63;;;7.73;96.03
54910;BME280;63189;51.240;9.964;2023-03-25T10:02:13;96759.81;;;7.62;98.07
54910;BME280;63189;51.240;9.964;2023-03-25T10:10:11;96737.03;;;7.69;100.00
54910;BME280;63189;51.240;9.964;2023-03-25T10:12:47;96744.31;;;7.82;98.17
54910;BME280;63189;51.240;9.964;2023-03-25T10:20:41;96751.19;;;8.05;93.09
54910;BME280;63189;51.240;9.964;2023-03-25T10:23:21;96735.56;;;8.07;93.35
54910;BME280;63189;51.240;9.964;2023-03-25T10:26:02;96728.84;;;8.01;93.66
54910;BME280;63189;51.240;9.964;2023-03-25T10:28:33;96753.09;;;8.22;94.85
54910;BME280;63189;51.240;9.964;2023-03-25T10:31:01;96714.19;;;8.00;91.06
54910;BME280;63189;51.240;9.964;2023-03-25T10:33:36;96746.97;;;8.25;91.74
54910;BME280;63189;51.240;9.964;2023-03-25T10:36:06;96743.22;;;8.10;90.99
54910;BME280;63189;51.240;9.964;2023-03-25T10:38:37;96734.22;;;7.97;88.64
54910;BME280;63189;51.240;9.964;2023-03-25T10:41:29;96742.94;;;7.96;89.80
54910;BME280;63189;51.240;9.964;2023-03-25T10:43:55;96752.53;;;7.94;91.12
54910;BME280;63189;51.240;9.964;2023-03-25T10:46:33;96768.44;;;7.85;92.86
54910;BME280;63189;51.240;9.964;2023-03-25T10:49:01;96742.66;;;7.58;95.31
54910;BME280;63189;51.240;9.964;2023-03-25T10:51:30;96761.06;;;7.52;94.46
54910;BME280;63189;51.240;9.964;2023-03-25T10:53:56;96771.13;;;7.36;94.79
54910;BME280;63189;51.240;9.964;2023-03-25T10:56:29;96757.94;;;7.42;94.53
54910;BME280;63189;51.240;9.964;2023-03-25T10:58:57;96746.16;;;7.34;94.01
54910;BME280;63189;51.240;9.964;2023-03-25T11:01:39;96746.03;;;7.37;94.75
54910;BME280;63189;51.240;9.964;2023-03-25T11:04:06;96753.81;;;7.37;94.46
54910;BME280;63189;51.240;9.964;2023-03-25T11:06:36;96734.44;;;7.23;94.46
54910;BME280;63189;51.240;9.964;2023-03-25T11:11:33;96743.06;;;7.24;94.57
54910;BME280;63189;51.240;9.964;2023-03-25T11:14:00;96715.16;;;7.07;95.08
54910;BME280;63189;51.240;9.964;2023-03-25T11:16:31;96690.94;;;6.85;95.12
54910;BME280;63189;51.240;9.964;2023-03-25T11:19:00;96732.81;;;7.21;96.47
54910;BME280;63189;51.240;9.964;2023-03-25T11:21:29;96733.22;;;7.34;94.82
54910;BME280;63189;51.240;9.964;2023-03-25T11:23:57;96749.94;;;7.70;95.75
54910;BME280;63189;51.240;9.964;2023-03-25T11:26:34;96745.16;;;7.83;95.31
54910;BME280;63189;51.240;9.964;2023-03-25T11:29:05;96720.41;;;7.74;92.28
54910;BME280;63189;51.240;9.964;2023-03-25T11:31:35;96737.53;;;8.22;97.10
54910;BME280;63189;51.240;9.964;2023-03-25T11:34:19;96728.88;;;8.64;97.00
54910;BME280;63189;51.240;9.964;2023-03-25T11:39:34;96736.19;;;8.96;90.31
54910;BME280;63189;51.240;9.964;2023-03-25T11:42:34;96737.69;;;9.21;89.41
54910;BME280;63189;51.240;9.964;2023-03-25T11:45:03;96738.34;;;9.64;97.38
54910;BME280;63189;51.240;9.964;2023-03-25T11:47:34;96736.16;;;9.92;89.72
54910;BME280;63189;51.240;9.964;2023-03-25T11:50:00;96722.19;;;10.12;89.64
54910;BME280;63189;51.240;9.964;2023-03-25T11:52:38;96737.09;;;10.08;82.63
54910;BME280;63189;51.240;9.964;2023-03-25T11:55:06;96707.50;;;9.92;88.29
54910;BME280;63189;51.240;9.964;2023-03-25T11:57:39;96727.44;;;10.10;86.51
54910;BME280;63189;51.240;9.964;2023-03-25T12:02:58;96738.59;;;9.95;82.32
54910;BME280;63189;51.240;9.964;2023-03-25T12:05:24;96715.41;;;9.91;81.87
54910;BME280;63189;51.240;9.964;2023-03-25T12:07:51;96727.31;;;10.13;84.21
54910;BME280;63189;51.240;9.964;2023-03-25T12:10:39;96720.25;;;10.16;82.71
54910;BME280;63189;51.240;9.964;2023-03-25T12:16:39;96747.59;;;9.88;78.27
54910;BME280;63189;51.240;9.964;2023-03-25T12:19:15;96728.94;;;9.61;82.95
54910;BME280;63189;51.240;9.964;2023-03-25T12:22:00;96742.28;;;9.53;87.88
54910;BME280;63189;51.240;9.964;2023-03-25T12:24:41;96739.91;;;9.49;92.40
54910;BME280;63189;51.240;9.964;2023-03-25T12:27:30;96728.78;;;9.45;87.36
54910;BME280;63189;51.240;9.964;2023-03-25T12:32:42;96730.47;;;9.46;84.99
54910;BME280;63189;51.240;9.964;2023-03-25T12:38:03;96717.03;;;9.55;87.14
54910;BME280;63189;51.240;9.964;2023-03-25T12:41:02;96729.47;;;9.87;87.54
54910;BME280;63189;51.240;9.964;2023-03-25T12:57:42;96704.44;;;9.65;84.37
54910;BME280;63189;51.240;9.964;2023-03-25T13:00:30;96715.06;;;9.61;83.27
54910;BME280;63189;51.240;9.964;2023-03-25T13:03:26;96709.38;;;9.34;84.10
54910;BME280;63189;51.240;9.964;2023-03-25T13:10:57;96713.41;;;9.02;83.99
54910;BME280;63189;51.240;9.964;2023-03-25T13:13:25;96696.66;;;8.88;83.87
54910;BME280;63189;51.240;9.964;2023-03-25T13:16:10;96714.56;;;8.94;85.39
54910;BME280;63189;51.240;9.964;2023-03-25T13:19:01;96692.81;;;8.97;85.69
54910;BME280;63189;51.240;9.964;2023-03-25T13:21:31;96689.56;;;8.92;84.59
54910;BME280;63189;51.240;9.964;2023-03-25T13:24:04;96719.88;;;9.12;86.58
54910;BME280;63189;51.240;9.964;2023-03-25T13:26:32;96687.84;;;9.11;87.57
54910;BME280;63189;51.240;9.964;2023-03-25T13:29:02;96713.88;;;9.30;87.21
54910;BME280;63189;51.240;9.964;2023-03-25T13:31:35;96678.03;;;9.18;85.95
54910;BME280;63189;51.240;9.964;2023-03-25T13:34:26;96650.31;;;9.17;84.85
54910;BME280;63189;51.240;9.964;2023-03-25T13:37:18;96705.09;;;9.70;86.12
54910;BME280;63189;51.240;9.964;2023-03-25T13:40:22;96690.75;;;9.79;84.14
54910;BME280;63189;51.240;9.964;2023-03-25T13:46:07;96641.81;;;9.51;81.01
54910;BME280;63189;51.240;9.964;2023-03-25T13:51:08;96673.66;;;10.09;82.42
54910;BME280;63189;51.240;9.964;2023-03-25T13:53:42;96687.25;;;10.16;82.42
54910;BME280;63189;51.240;9.964;2023-03-25T14:05:24;96651.03;;;10.11;76.16
54910;BME280;63189;51.240;9.964;2023-03-25T14:08:13;96678.22;;;10.40;82.25
54910;BME280;63189;51.240;9.964;2023-03-25T14:10:53;96662.00;;;10.53;79.31
54910;BME280;63189;51.240;9.964;2023-03-25T14:13:25;96662.06;;;10.51;76.33
54910;BME280;63189;51.240;9.964;2023-03-25T14:16:02;96673.88;;;10.58;76.92
54910;BME280;63189;51.240;9.964;2023-03-25T14:19:12;96652.41;;;10.36;76.80
54910;BME280;63189;51.240;9.964;2023-03-25T14:21:51;96657.47;;;10.56;76.01
54910;BME280;63189;51.240;9.964;2023-03-25T14:29:50;96640.63;;;10.46;74.20
54910;BME280;63189;51.240;9.964;2023-03-25T14:34:45;96638.47;;;10.37;75.79
54910;BME280;63189;51.240;9.964;2023-03-25T14:37:30;96627.06;;;10.22;76.79
54910;BME280;63189;51.240;9.964;2023-03-25T14:40:04;96639.59;;;10.14;76.07
54910;BME280;63189;51.240;9.964;2023-03-25T14:48:49;96653.13;;;10.21;79.87
54910;BME280;63189;51.240;9.964;2023-03-25T14:53:52;96629.34;;;10.11;79.97
54910;BME280;63189;51.240;9.964;2023-03-25T14:56:24;96648.34;;;10.30;78.51
54910;BME280;63189;51.240;9.964;2023-03-25T14:58:57;96651.66;;;10.34;74.90
54910;BME280;63189;51.240;9.964;2023-03-25T15:01:35;96657.47;;;10.39;76.54
54910;BME280;63189;51.240;9.964;2023-03-25T15:04:12;96667.06;;;10.38;76.87